sensor_id;sensor_type;location;lat;lon;timestamp;pressure;altitude;pressure_sealevel;temperature;humidity
82148;BME280;71718;50.480;12.110;2023-12-20T00:01:56;97403.75;;;2.64;75.35
82148;BME280;71718;50.480;12.110;2023-12-20T00:04:22;97399.28;;;2.66;76.09
82148;BME280;71718;50.480;12.110;2023-12-20T00:06:49;97398.47;;;2.65;75.75
82148;BME280;71718;50.480;12.110;2023-12-20T00:09:15;97393.00;;;2.68;75.14
82148;BME280;71718;50.480;12.110;2023-12-20T00:11:42;97397.19;;;2.69;75.74
82148;BME280;71718;50.480;12.110;2023-12-20T00:14:08;97387.59;;;2.71;75.31
82148;BME280;71718;50.480;12.110;2023-12-20T00:16:34;97385.03;;;2.71;75.40
82148;BME280;71718;50.480;12.110;2023-12-20T00:19:01;97389.66;;;2.76;74.93
82148;BME280;71718;50.480;12.110;2023-12-20T00:21:27;97386.44;;;2.74;75.26
82148;BME280;71718;50.480;12.110;2023-12-20T00:23:54;97377.63;;;2.68;74.93
82148;BME280;71718;50.480;12.110;2023-12-20T00:26:20;97372.84;;;2.57;75.99
82148;BME280;71718;50.480;12.110;2023-12-20T00:28:47;97370.59;;;2.54;75.85
82148;BME280;71718;50.480;12.110;2023-12-20T00:31:13;97369.00;;;2.53;76.00
82148;BME280;71718;50.480;12.110;2023-12-20T00:33:39;97372.69;;;2.50;76.29
82148;BME280;71718;50.480;12.110;2023-12-20T00:36:06;97363.88;;;2.53;76.37
82148;BME280;71718;50.480;12.110;2023-12-20T00:38:33;97360.19;;;2.56;75.70
82148;BME280;71718;50.480;12.110;2023-12-20T00:40:59;97353.31;;;2.56;76.39
82148;BME280;71718;50.480;12.110;2023-12-20T00:43:25;97365.47;;;2.54;76.22
82148;BME280;71718;50.480;12.110;2023-12-20T00:45:52;97360.53;;;2.44;76.35
82148;BME280;71718;50.480;12.110;2023-12-20T00:48:18;97360.53;;;2.44;76.64
82148;BME280;71718;50.480;12.110;2023-12-20T00:50:45;97367.72;;;2.49;76.45
82148;BME280;71718;50.480;12.110;2023-12-20T00:53:11;97351.53;;;2.48;76.46
82148;BME280;71718;50.480;12.110;2023-12-20T00:55:38;97354.44;;;2.45;76.17
82148;BME280;71718;50.480;12.110;2023-12-20T00:58:04;97354.13;;;2.48;76.73
82148;BME280;71718;50.480;12.110;2023-12-20T01:00:30;97349.63;;;2.50;76.44
82148;BME280;71718;50.480;12.110;2023-12-20T01:02:57;97348.50;;;2.53;76.18
82148;BME280;71718;50.480;12.110;2023-12-20T01:05:23;97361.81;;;2.57;75.86
82148;BME280;71718;50.480;12.110;2023-12-20T01:07:50;97357.16;;;2.60;75.55
82148;BME280;71718;50.480;12.110;2023-12-20T01:10:16;97356.50;;;2.58;75.83
82148;BME280;71718;50.480;12.110;2023-12-20T01:12:43;97350.91;;;2.55;76.03
82148;BME280;71718;50.480;12.110;2023-12-20T01:15:10;97352.81;;;2.52;76.14
82148;BME280;71718;50.480;12.110;2023-12-20T01:17:36;97351.88;;;2.54;76.21
82148;BME280;71718;50.480;12.110;2023-12-20T01:20:03;97348.50;;;2.53;76.34
82148;BME280;71718;50.480;12.110;2023-12-20T01:22:29;97343.06;;;2.56;75.71
82148;BME280;71718;50.480;12.110;2023-12-20T01:24:56;97343.69;;;2.58;76.09
82148;BME280;71718;50.480;12.110;2023-12-20T01:27:22;97345.13;;;2.52;76.17
82148;BME280;71718;50.480;12.110;2023-12-20T01:29:48;97339.03;;;2.54;75.76
82148;BME280;71718;50.480;12.110;2023-12-20T01:32:15;97339.03;;;2.54;76.44
82148;BME280;71718;50.480;12.110;2023-12-20T01:34:41;97332.31;;;2.52;75.93
82148;BME280;71718;50.480;12.110;2023-12-20T01:37:08;97325.13;;;2.56;75.82
82148;BME280;71718;50.480;12.110;2023-12-20T01:39:34;97323.50;;;2.55;75.91
82148;BME280;71718;50.480;12.110;2023-12-20T01:42:00;97325.28;;;2.55;75.63
82148;BME280;71718;50.480;12.110;2023-12-20T01:44:27;97321.56;;;2.57;76.37
82148;BME280;71718;50.480;12.110;2023-12-20T01:46:54;97319.50;;;2.52;76.23
82148;BME280;71718;50.480;12.110;2023-12-20T01:49:21;97322.72;;;2.55;75.90
82148;BME280;71718;50.480;12.110;2023-12-20T01:51:48;97315.81;;;2.55;75.99
82148;BME280;71718;50.480;12.110;2023-12-20T01:54:14;97314.38;;;2.52;76.06
82148;BME280;71718;50.480;12.110;2023-12-20T01:56:42;97313.09;;;2.48;76.10
82148;BME280;71718;50.480;12.110;2023-12-20T01:59:08;97306.22;;;2.49;76.72
82148;BME280;71718;50.480;12.110;2023-12-20T02:01:35;97299.94;;;2.51;76.41
82148;BME280;71718;50.480;12.110;2023-12-20T02:04:02;97304.78;;;2.55;75.92
82148;BME280;71718;50.480;12.110;2023-12-20T02:06:30;97302.84;;;2.57;75.38
82148;BME280;71718;50.480;12.110;2023-12-20T02:08:57;97301.72;;;2.59;75.66
82148;BME280;71718;50.480;12.110;2023-12-20T02:11:25;97298.66;;;2.64;75.34
82148;BME280;71718;50.480;12.110;2023-12-20T02:13:52;97294.66;;;2.61;75.60
82148;BME280;71718;50.480;12.110;2023-12-20T02:16:19;97289.03;;;2.66;75.19
82148;BME280;71718;50.480;12.110;2023-12-20T02:18:45;97286.94;;;2.69;75.30
82148;BME280;71718;50.480;12.110;2023-12-20T02:21:12;97288.41;;;2.72;75.09
82148;BME280;71718;50.480;12.110;2023-12-20T02:23:38;97283.41;;;2.70;74.70
82148;BME280;71718;50.480;12.110;2023-12-20T02:26:05;97285.19;;;2.70;74.98
82148;BME280;71718;50.480;12.110;2023-12-20T02:28:31;97289.34;;;2.71;74.97
82148;BME280;71718;50.480;12.110;2023-12-20T02:30:58;97286.13;;;2.69;75.77
82148;BME280;71718;50.480;12.110;2023-12-20T02:33:24;97281.66;;;2.71;74.63
82148;BME280;71718;50.480;12.110;2023-12-20T02:35:51;97276.34;;;2.72;74.87
82148;BME280;71718;50.480;12.110;2023-12-20T02:38:18;97290.31;;;2.70;75.25
82148;BME280;71718;50.480;12.110;2023-12-20T02:40:44;97288.72;;;2.69;74.92
82148;BME280;71718;50.480;12.110;2023-12-20T02:43:15;97287.09;;;2.68;75.13
82148;BME280;71718;50.480;12.110;2023-12-20T02:45:42;97279.09;;;2.71;74.68
82148;BME280;71718;50.480;12.110;2023-12-20T02:48:08;97271.41;;;2.71;74.85
82148;BME280;71718;50.480;12.110;2023-12-20T02:50:35;97267.09;;;2.71;75.31
82148;BME280;71718;50.480;12.110;2023-12-20T02:53:01;97260.19;;;2.72;74.70
82148;BME280;71718;50.480;12.110;2023-12-20T02:55:27;97256.81;;;2.71;74.80
82148;BME280;71718;50.480;12.110;2023-12-20T02:57:54;97261.47;;;2.68;74.92
82148;BME280;71718;50.480;12.110;2023-12-20T03:00:20;97260.84;;;2.66;75.04
82148;BME280;71718;50.480;12.110;2023-12-20T03:02:47;97261.97;;;2.63;75.23
82148;BME280;71718;50.480;12.110;2023-12-20T03:05:13;97274.16;;;2.61;75.23
82148;BME280;71718;50.480;12.110;2023-12-20T03:07:40;97269.84;;;2.62;75.16
82148;BME280;71718;50.480;12.110;2023-12-20T03:10:06;97274.78;;;2.63;74.99
82148;BME280;71718;50.480;12.110;2023-12-20T03:12:45;97272.88;;;2.57;75.26
82148;BME280;71718;50.480;12.110;2023-12-20T03:15:12;97263.75;;;2.46;75.94
82148;BME280;71718;50.480;12.110;2023-12-20T03:17:38;97266.16;;;2.48;75.75
82148;BME280;71718;50.480;12.110;2023-12-20T03:20:05;97264.25;;;2.50;75.90
82148;BME280;71718;50.480;12.110;2023-12-20T03:22:32;97271.28;;;2.48;75.99
82148;BME280;71718;50.480;12.110;2023-12-20T03:24:58;97264.91;;;2.44;75.85
82148;BME280;71718;50.480;12.110;2023-12-20T03:27:24;97271.31;;;2.40;76.36
82148;BME280;71718;50.480;12.110;2023-12-20T03:29:51;97275.31;;;2.42;76.01
82148;BME280;71718;50.480;12.110;2023-12-20T03:32:17;97265.72;;;2.44;75.89
82148;BME280;71718;50.480;12.110;2023-12-20T03:34:43;97266.19;;;2.40;76.35
82148;BME280;71718;50.480;12.110;2023-12-20T03:37:10;97265.25;;;2.33;76.58
82148;BME280;71718;50.480;12.110;2023-12-20T03:39:37;97274.53;;;2.34;76.66
82148;BME280;71718;50.480;12.110;2023-12-20T03:42:03;97271.50;;;2.30;76.79
82148;BME280;71718;50.480;12.110;2023-12-20T03:44:30;97275.03;;;2.29;76.53
82148;BME280;71718;50.480;12.110;2023-12-20T03:46:56;97272.16;;;2.24;76.96
82148;BME280;71718;50.480;12.110;2023-12-20T03:49:23;97275.00;;;2.21;77.04
82148;BME280;71718;50.480;12.110;2023-12-20T03:51:49;97269.75;;;2.15;77.51
82148;BME280;71718;50.480;12.110;2023-12-20T03:54:15;97281.59;;;2.16;77.39
82148;BME280;71718;50.480;12.110;2023-12-20T03:56:42;97278.88;;;2.09;77.86
82148;BME280;71718;50.480;12.110;2023-12-20T03:59:08;97275.53;;;2.08;77.74
82148;BME280;71718;50.480;12.110;2023-12-20T04:01:35;97275.69;;;2.07;78.09
82148;BME280;71718;50.480;12.110;2023-12-20T04:04:01;97271.66;;;2.13;77.81
82148;BME280;71718;50.480;12.110;2023-12-20T04:06:28;97270.88;;;2.12;77.73
82148;BME280;71718;50.480;12.110;2023-12-20T04:08:54;97276.00;;;2.12;77.85
82148;BME280;71718;50.480;12.110;2023-12-20T04:11:20;97271.34;;;2.16;77.42
82148;BME280;71718;50.480;12.110;2023-12-20T04:13:47;97276.97;;;2.19;77.11
82148;BME280;71718;50.480;12.110;2023-12-20T04:16:13;97276.94;;;2.11;77.70
82148;BME280;71718;50.480;12.110;2023-12-20T04:18:39;97278.25;;;2.15;77.80
82148;BME280;71718;50.480;12.110;2023-12-20T04:21:06;97276.97;;;2.19;77.41
82148;BME280;71718;50.480;12.110;2023-12-20T04:23:32;97267.19;;;2.23;76.91
82148;BME280;71718;50.480;12.110;2023-12-20T04:25:59;97276.31;;;2.25;77.15
82148;BME280;71718;50.480;12.110;2023-12-20T04:28:25;97277.75;;;2.28;77.02
82148;BME280;71718;50.480;12.110;2023-12-20T04:30:52;97266.38;;;2.30;76.89
82148;BME280;71718;50.480;12.110;2023-12-20T04:33:18;97269.09;;;2.29;76.63
82148;BME280;71718;50.480;12.110;2023-12-20T04:35:44;97278.38;;;2.30;76.55
82148;BME280;71718;50.480;12.110;2023-12-20T04:38:11;97285.44;;;2.28;76.64
82148;BME280;71718;50.480;12.110;2023-12-20T04:40:37;97288.00;;;2.28;76.69
82148;BME280;71718;50.480;12.110;2023-12-20T04:43:04;97292.66;;;2.24;76.84
82148;BME280;71718;50.480;12.110;2023-12-20T04:45:30;97297.13;;;2.22;76.77
82148;BME280;71718;50.480;12.110;2023-12-20T04:47:57;97288.81;;;2.20;77.06
82148;BME280;71718;50.480;12.110;2023-12-20T04:50:23;97290.41;;;2.29;76.53
82148;BME280;71718;50.480;12.110;2023-12-20T04:52:51;97293.25;;;2.26;76.72
82148;BME280;71718;50.480;12.110;2023-12-20T04:55:17;97302.72;;;2.26;76.96
82148;BME280;71718;50.480;12.110;2023-12-20T04:57:44;97294.56;;;2.22;76.82
82148;BME280;71718;50.480;12.110;2023-12-20T05:00:11;97301.28;;;2.23;76.89
82148;BME280;71718;50.480;12.110;2023-12-20T05:02:37;97290.22;;;2.23;76.88
82148;BME280;71718;50.480;12.110;2023-12-20T05:05:04;97295.22;;;2.24;76.72
82148;BME280;71718;50.480;12.110;2023-12-20T05:07:31;97306.72;;;2.28;76.59
82148;BME280;71718;50.480;12.110;2023-12-20T05:09:58;97311.19;;;2.26;76.56
82148;BME280;71718;50.480;12.110;2023-12-20T05:12:25;97312.00;;;2.27;76.70
82148;BME280;71718;50.480;12.110;2023-12-20T05:14:54;97309.78;;;2.24;76.96
82148;BME280;71718;50.480;12.110;2023-12-20T05:17:20;97303.03;;;2.23;77.14
82148;BME280;71718;50.480;12.110;2023-12-20T05:19:47;97295.34;;;2.23;76.90
82148;BME280;71718;50.480;12.110;2023-12-20T05:22:13;97309.94;;;2.22;77.12
82148;BME280;71718;50.480;12.110;2023-12-20T05:24:40;97310.25;;;2.27;76.87
82148;BME280;71718;50.480;12.110;2023-12-20T05:27:06;97316.00;;;2.29;76.88
82148;BME280;71718;50.480;12.110;2023-12-20T05:29:33;97315.69;;;2.32;76.68
82148;BME280;71718;50.480;12.110;2023-12-20T05:31:59;97313.59;;;2.28;76.82
82148;BME280;71718;50.480;12.110;2023-12-20T05:34:25;97307.84;;;2.34;76.17
82148;BME280;71718;50.480;12.110;2023-12-20T05:36:52;97315.19;;;2.37;76.36
82148;BME280;71718;50.480;12.110;2023-12-20T05:39:18;97315.69;;;2.40;75.82
82148;BME280;71718;50.480;12.110;2023-12-20T05:41:45;97317.25;;;2.41;75.91
82148;BME280;71718;50.480;12.110;2023-12-20T05:44:11;97323.03;;;2.43;75.82
82148;BME280;71718;50.480;12.110;2023-12-20T05:46:38;97327.84;;;2.38;75.95
82148;BME280;71718;50.480;12.110;2023-12-20T05:49:04;97320.00;;;2.40;76.16
82148;BME280;71718;50.480;12.110;2023-12-20T05:51:30;97336.81;;;2.42;76.15
82148;BME280;71718;50.480;12.110;2023-12-20T05:53:57;97330.06;;;2.41;76.03
82148;BME280;71718;50.480;12.110;2023-12-20T05:56:23;97327.22;;;2.44;75.59
82148;BME280;71718;50.480;12.110;2023-12-20T05:58:50;97338.72;;;2.48;75.80
82148;BME280;71718;50.480;12.110;2023-12-20T06:01:16;97326.72;;;2.49;75.28
82148;BME280;71718;50.480;12.110;2023-12-20T06:03:43;97325.75;;;2.50;75.62
82148;BME280;71718;50.480;12.110;2023-12-20T06:06:09;97333.28;;;2.51;75.22
82148;BME280;71718;50.480;12.110;2023-12-20T06:08:42;97333.28;;;2.51;75.55
82148;BME280;71718;50.480;12.110;2023-12-20T06:11:09;97332.81;;;2.48;75.49
82148;BME280;71718;50.480;12.110;2023-12-20T06:13:35;97328.50;;;2.40;75.68
82148;BME280;71718;50.480;12.110;2023-12-20T06:16:02;97332.34;;;2.44;75.75
82148;BME280;71718;50.480;12.110;2023-12-20T06:18:28;97340.50;;;2.48;75.83
82148;BME280;71718;50.480;12.110;2023-12-20T06:20:54;97349.31;;;2.54;75.68
82148;BME280;71718;50.480;12.110;2023-12-20T06:23:21;97344.34;;;2.60;74.88
82148;BME280;71718;50.480;12.110;2023-12-20T06:25:47;97348.97;;;2.65;75.17
82148;BME280;71718;50.480;12.110;2023-12-20T06:28:14;97350.38;;;2.67;74.82
82148;BME280;71718;50.480;12.110;2023-12-20T06:30:40;97356.81;;;2.71;75.29
82148;BME280;71718;50.480;12.110;2023-12-20T06:33:07;97361.31;;;2.77;74.35
82148;BME280;71718;50.480;12.110;2023-12-20T06:35:33;97363.88;;;2.77;74.45
82148;BME280;71718;50.480;12.110;2023-12-20T06:38:03;97363.22;;;2.75;74.43
82148;BME280;71718;50.480;12.110;2023-12-20T06:40:29;97361.91;;;2.79;75.08
82148;BME280;71718;50.480;12.110;2023-12-20T06:42:55;97364.94;;;2.83;74.61
82148;BME280;71718;50.480;12.110;2023-12-20T06:45:34;97370.56;;;2.86;74.48
82148;BME280;71718;50.480;12.110;2023-12-20T06:48:00;97370.22;;;2.89;73.64
82148;BME280;71718;50.480;12.110;2023-12-20T06:50:27;97369.13;;;2.92;74.51
82148;BME280;71718;50.480;12.110;2023-12-20T06:52:53;97369.56;;;2.96;73.60
82148;BME280;71718;50.480;12.110;2023-12-20T06:55:20;97372.78;;;2.98;74.45
82148;BME280;71718;50.480;12.110;2023-12-20T06:57:46;97374.84;;;3.02;73.67
82148;BME280;71718;50.480;12.110;2023-12-20T07:00:14;97379.66;;;3.05;74.29
82148;BME280;71718;50.480;12.110;2023-12-20T07:02:40;97369.22;;;3.07;72.86
82148;BME280;71718;50.480;12.110;2023-12-20T07:05:07;97371.94;;;3.05;72.89
82148;BME280;71718;50.480;12.110;2023-12-20T07:07:33;97382.69;;;3.09;72.78
82148;BME280;71718;50.480;12.110;2023-12-20T07:10:00;97387.03;;;3.08;73.45
82148;BME280;71718;50.480;12.110;2023-12-20T07:12:26;97384.47;;;3.08;72.46
82148;BME280;71718;50.480;12.110;2023-12-20T07:14:53;97385.75;;;3.04;72.58
82148;BME280;71718;50.480;12.110;2023-12-20T07:17:19;97377.59;;;3.01;73.49
82148;BME280;71718;50.480;12.110;2023-12-20T07:19:46;97383.06;;;2.98;73.42
82148;BME280;71718;50.480;12.110;2023-12-20T07:22:12;97388.19;;;2.98;73.13
82148;BME280;71718;50.480;12.110;2023-12-20T07:24:39;97384.00;;;2.88;73.02
82148;BME280;71718;50.480;12.110;2023-12-20T07:27:05;97385.16;;;2.78;73.71
82148;BME280;71718;50.480;12.110;2023-12-20T07:29:31;97389.31;;;2.79;74.11
82148;BME280;71718;50.480;12.110;2023-12-20T07:31:58;97391.88;;;2.79;73.81
82148;BME280;71718;50.480;12.110;2023-12-20T07:34:24;97399.88;;;2.84;73.70
82148;BME280;71718;50.480;12.110;2023-12-20T07:36:51;97392.69;;;2.79;74.12
82148;BME280;71718;50.480;12.110;2023-12-20T07:39:17;97392.03;;;2.85;73.89
82148;BME280;71718;50.480;12.110;2023-12-20T07:41:44;97396.53;;;2.83;74.07
82148;BME280;71718;50.480;12.110;2023-12-20T07:44:12;97398.59;;;2.88;74.25
82148;BME280;71718;50.480;12.110;2023-12-20T07:46:38;97392.50;;;2.89;74.09
82148;BME280;71718;50.480;12.110;2023-12-20T07:49:05;97403.06;;;2.94;73.22
82148;BME280;71718;50.480;12.110;2023-12-20T07:51:31;97396.34;;;2.93;73.93
82148;BME280;71718;50.480;12.110;2023-12-20T07:53:58;97397.97;;;2.86;74.65
82148;BME280;71718;50.480;12.110;2023-12-20T07:56:24;97401.66;;;2.83;74.44
82148;BME280;71718;50.480;12.110;2023-12-20T07:58:51;97392.38;;;2.82;73.90
82148;BME280;71718;50.480;12.110;2023-12-20T08:01:19;97394.44;;;2.87;74.20
82148;BME280;71718;50.480;12.110;2023-12-20T08:03:48;97396.53;;;2.91;74.70
82148;BME280;71718;50.480;12.110;2023-12-20T08:06:15;97405.16;;;2.99;75.85
82148;BME280;71718;50.480;12.110;2023-12-20T08:08:41;97407.72;;;3.07;74.49
82148;BME280;71718;50.480;12.110;2023-12-20T08:11:10;97408.19;;;3.10;73.13
82148;BME280;71718;50.480;12.110;2023-12-20T08:13:36;97404.34;;;3.06;73.23
82148;BME280;71718;50.480;12.110;2023-12-20T08:16:03;97388.81;;;3.00;73.13
82148;BME280;71718;50.480;12.110;2023-12-20T08:18:31;97400.03;;;2.90;73.99
82148;BME280;71718;50.480;12.110;2023-12-20T08:20:58;97406.31;;;2.80;74.58
82148;BME280;71718;50.480;12.110;2023-12-20T08:23:24;97409.84;;;2.71;74.31
82148;BME280;71718;50.480;12.110;2023-12-20T08:25:53;97408.59;;;2.67;74.96
82148;BME280;71718;50.480;12.110;2023-12-20T08:28:19;97417.22;;;2.66;75.03
82148;BME280;71718;50.480;12.110;2023-12-20T08:30:46;97411.94;;;2.59;74.70
82148;BME280;71718;50.480;12.110;2023-12-20T08:33:13;97409.53;;;2.58;75.10
82148;BME280;71718;50.480;12.110;2023-12-20T08:35:40;97410.97;;;2.52;75.34
82148;BME280;71718;50.480;12.110;2023-12-20T08:38:06;97400.41;;;2.47;75.31
82148;BME280;71718;50.480;12.110;2023-12-20T08:40:33;97400.25;;;2.40;75.84
82148;BME280;71718;50.480;12.110;2023-12-20T08:42:59;97404.06;;;2.36;76.05
82148;BME280;71718;50.480;12.110;2023-12-20T08:45:26;97405.50;;;2.31;76.38
82148;BME280;71718;50.480;12.110;2023-12-20T08:47:52;97416.75;;;2.30;76.56
82148;BME280;71718;50.480;12.110;2023-12-20T08:50:19;97421.53;;;2.33;76.48
82148;BME280;71718;50.480;12.110;2023-12-20T08:52:45;97420.59;;;2.34;76.20
82148;BME280;71718;50.480;12.110;2023-12-20T08:55:12;97427.31;;;2.35;76.08
82148;BME280;71718;50.480;12.110;2023-12-20T08:57:38;97429.88;;;2.35;76.18
82148;BME280;71718;50.480;12.110;2023-12-20T09:00:05;97427.63;;;2.48;75.93
82148;BME280;71718;50.480;12.110;2023-12-20T09:02:34;97441.59;;;2.62;75.10
82148;BME280;71718;50.480;12.110;2023-12-20T09:05:00;97431.16;;;2.79;74.65
82148;BME280;71718;50.480;12.110;2023-12-20T09:07:28;97432.91;;;2.87;74.32
82148;BME280;71718;50.480;12.110;2023-12-20T09:09:54;97437.25;;;2.86;73.64
82148;BME280;71718;50.480;12.110;2023-12-20T09:12:21;97437.38;;;2.93;73.58
82148;BME280;71718;50.480;12.110;2023-12-20T09:14:49;97429.88;;;2.91;73.45
82148;BME280;71718;50.480;12.110;2023-12-20T09:17:16;97417.00;;;3.00;73.46
82148;BME280;71718;50.480;12.110;2023-12-20T09:19:43;97426.28;;;3.09;72.76
82148;BME280;71718;50.480;12.110;2023-12-20T09:22:10;97428.38;;;3.13;72.43
82148;BME280;71718;50.480;12.110;2023-12-20T09:24:37;97425.03;;;3.05;72.72
82148;BME280;71718;50.480;12.110;2023-12-20T09:27:04;97429.69;;;3.01;72.79
82148;BME280;71718;50.480;12.110;2023-12-20T09:29:31;97433.88;;;3.02;73.10
82148;BME280;71718;50.480;12.110;2023-12-20T09:31:58;97445.53;;;3.05;72.95
82148;BME280;71718;50.480;12.110;2023-12-20T09:34:24;97451.16;;;3.16;72.47
82148;BME280;71718;50.480;12.110;2023-12-20T09:36:51;97454.50;;;3.17;72.31
82148;BME280;71718;50.480;12.110;2023-12-20T09:39:19;97455.31;;;3.17;72.39
82148;BME280;71718;50.480;12.110;2023-12-20T09:42:00;97453.06;;;3.14;72.62
82148;BME280;71718;50.480;12.110;2023-12-20T09:44:27;97449.72;;;3.06;72.40
82148;BME280;71718;50.480;12.110;2023-12-20T09:46:55;97450.19;;;3.09;72.58
82148;BME280;71718;50.480;12.110;2023-12-20T09:49:21;97445.41;;;2.98;73.01
82148;BME280;71718;50.480;12.110;2023-12-20T09:51:50;97446.69;;;3.02;72.90
82148;BME280;71718;50.480;12.110;2023-12-20T09:54:18;97444.44;;;2.99;73.28
82148;BME280;71718;50.480;12.110;2023-12-20T09:56:44;97442.84;;;2.98;73.01
82148;BME280;71718;50.480;12.110;2023-12-20T09:59:13;97431.13;;;3.12;72.94
82148;BME280;71718;50.480;12.110;2023-12-20T10:01:41;97434.00;;;3.01;73.04
82148;BME280;71718;50.480;12.110;2023-12-20T10:04:09;97425.84;;;2.97;73.33
82148;BME280;71718;50.480;12.110;2023-12-20T10:06:40;97421.22;;;2.92;73.96
82148;BME280;71718;50.480;12.110;2023-12-20T10:09:06;97416.25;;;2.91;74.13
82148;BME280;71718;50.480;12.110;2023-12-20T10:11:35;97408.53;;;2.83;74.36
82148;BME280;71718;50.480;12.110;2023-12-20T10:14:01;97409.69;;;2.80;74.28
82148;BME280;71718;50.480;12.110;2023-12-20T10:16:28;97405.53;;;2.71;74.54
82148;BME280;71718;50.480;12.110;2023-12-20T10:18:56;97396.38;;;2.69;74.92
82148;BME280;71718;50.480;12.110;2023-12-20T10:21:23;97389.34;;;2.63;75.26
82148;BME280;71718;50.480;12.110;2023-12-20T10:23:49;97393.00;;;2.68;75.05
82148;BME280;71718;50.480;12.110;2023-12-20T10:26:19;97401.97;;;2.72;74.94
82148;BME280;71718;50.480;12.110;2023-12-20T10:28:46;97393.47;;;2.88;74.57
82148;BME280;71718;50.480;12.110;2023-12-20T10:31:32;97390.56;;;2.99;73.49
82148;BME280;71718;50.480;12.110;2023-12-20T10:34:01;97388.34;;;2.96;73.35
82148;BME280;71718;50.480;12.110;2023-12-20T10:36:32;97392.97;;;3.01;73.91
82148;BME280;71718;50.480;12.110;2023-12-20T10:38:59;97386.88;;;3.02;73.90
82148;BME280;71718;50.480;12.110;2023-12-20T10:41:30;97379.03;;;3.03;73.58
82148;BME280;71718;50.480;12.110;2023-12-20T10:44:01;97373.09;;;3.03;73.73
82148;BME280;71718;50.480;12.110;2023-12-20T10:46:29;97385.44;;;2.99;73.71
82148;BME280;71718;50.480;12.110;2023-12-20T10:48:56;97386.88;;;3.02;73.53
82148;BME280;71718;50.480;12.110;2023-12-20T10:51:24;97378.06;;;2.88;73.88
82148;BME280;71718;50.480;12.110;2023-12-20T10:53:53;97371.19;;;2.88;73.87
82148;BME280;71718;50.480;12.110;2023-12-20T10:56:20;97371.69;;;2.92;74.08
82148;BME280;71718;50.480;12.110;2023-12-20T10:58:47;97363.69;;;2.79;74.22
82148;BME280;71718;50.480;12.110;2023-12-20T11:01:15;97362.44;;;2.67;74.82
82148;BME280;71718;50.480;12.110;2023-12-20T11:03:49;97360.19;;;2.72;74.04
82148;BME280;71718;50.480;12.110;2023-12-20T11:08:59;97343.06;;;2.40;76.23
82148;BME280;71718;50.480;12.110;2023-12-20T11:14:04;97354.75;;;2.26;77.08
82148;BME280;71718;50.480;12.110;2023-12-20T11:16:32;97353.63;;;2.21;77.05
82148;BME280;71718;50.480;12.110;2023-12-20T11:19:13;97353.00;;;2.27;77.33
82148;BME280;71718;50.480;12.110;2023-12-20T11:21:41;97356.84;;;2.39;76.56
82148;BME280;71718;50.480;12.110;2023-12-20T11:24:07;97359.41;;;2.39;76.18
82148;BME280;71718;50.480;12.110;2023-12-20T11:26:34;97356.50;;;2.42;76.25
82148;BME280;71718;50.480;12.110;2023-12-20T11:29:34;97361.16;;;2.46;76.25
82148;BME280;71718;50.480;12.110;2023-12-20T11:32:03;97350.59;;;2.49;75.42
82148;BME280;71718;50.480;12.110;2023-12-20T11:34:33;97346.41;;;2.48;75.66
82148;BME280;71718;50.480;12.110;2023-12-20T11:37:02;97342.25;;;2.47;76.07
82148;BME280;71718;50.480;12.110;2023-12-20T11:39:30;97347.22;;;2.49;75.34
82148;BME280;71718;50.480;12.110;2023-12-20T11:42:04;97340.66;;;2.46;76.39
82148;BME280;71718;50.480;12.110;2023-12-20T11:44:30;97342.75;;;2.43;76.18
82148;BME280;71718;50.480;12.110;2023-12-20T11:46:57;97340.03;;;2.44;75.88
82148;BME280;71718;50.480;12.110;2023-12-20T11:49:24;97345.28;;;2.59;75.45
82148;BME280;71718;50.480;12.110;2023-12-20T11:51:50;97350.41;;;2.75;74.99
82148;BME280;71718;50.480;12.110;2023-12-20T11:54:17;97332.09;;;2.78;75.02
82148;BME280;71718;50.480;12.110;2023-12-20T11:56:43;97335.16;;;2.82;74.83
82148;BME280;71718;50.480;12.110;2023-12-20T11:59:10;97327.88;;;3.02;74.13
82148;BME280;71718;50.480;12.110;2023-12-20T12:01:48;97330.59;;;3.08;74.06
82148;BME280;71718;50.480;12.110;2023-12-20T12:04:15;97328.13;;;3.15;73.64
82148;BME280;71718;50.480;12.110;2023-12-20T12:06:42;97328.66;;;3.10;73.63
82148;BME280;71718;50.480;12.110;2023-12-20T12:09:08;97327.97;;;3.16;73.05
82148;BME280;71718;50.480;12.110;2023-12-20T12:11:35;97318.66;;;3.23;72.73
82148;BME280;71718;50.480;12.110;2023-12-20T12:14:01;97310.69;;;3.10;73.45
82148;BME280;71718;50.480;12.110;2023-12-20T12:16:27;97310.84;;;3.09;72.92
82148;BME280;71718;50.480;12.110;2023-12-20T12:18:58;97313.66;;;2.91;73.69
82148;BME280;71718;50.480;12.110;2023-12-20T12:21:24;97318.00;;;2.82;73.92
82148;BME280;71718;50.480;12.110;2023-12-20T12:24:09;97319.59;;;2.83;74.62
82148;BME280;71718;50.480;12.110;2023-12-20T12:26:35;97318.84;;;2.67;74.41
82148;BME280;71718;50.480;12.110;2023-12-20T12:29:02;97309.88;;;2.63;74.93
82148;BME280;71718;50.480;12.110;2023-12-20T12:31:28;97305.88;;;2.52;75.37
82148;BME280;71718;50.480;12.110;2023-12-20T12:33:55;97301.38;;;2.62;75.60
82148;BME280;71718;50.480;12.110;2023-12-20T12:36:22;97304.75;;;2.71;75.00
82148;BME280;71718;50.480;12.110;2023-12-20T12:38:49;97314.66;;;2.82;73.76
82148;BME280;71718;50.480;12.110;2023-12-20T12:41:15;97301.63;;;2.83;74.35
82148;BME280;71718;50.480;12.110;2023-12-20T12:43:42;97301.53;;;2.69;75.07
82148;BME280;71718;50.480;12.110;2023-12-20T12:46:08;97298.16;;;2.76;74.45
82148;BME280;71718;50.480;12.110;2023-12-20T12:48:34;97292.22;;;2.76;74.45
82148;BME280;71718;50.480;12.110;2023-12-20T12:51:01;97296.84;;;2.80;74.51
82148;BME280;71718;50.480;12.110;2023-12-20T12:53:27;97288.56;;;2.70;74.72
82148;BME280;71718;50.480;12.110;2023-12-20T12:55:54;97288.41;;;2.64;75.01
82148;BME280;71718;50.480;12.110;2023-12-20T12:58:20;97266.91;;;2.73;75.09
82148;BME280;71718;50.480;12.110;2023-12-20T13:00:47;97264.50;;;2.71;74.87
82148;BME280;71718;50.480;12.110;2023-12-20T13:03:14;97270.09;;;2.75;74.13
82148;BME280;71718;50.480;12.110;2023-12-20T13:05:40;97271.41;;;2.71;75.11